createdAt,value
2018-09-28T00:01:23.994Z,20.00
2018-09-28T00:03:52.543Z,20.00
2018-09-28T00:06:21.067Z,20.00
2018-09-28T00:08:49.599Z,20.00
2018-09-28T00:11:18.159Z,20.00
2018-09-28T00:13:46.764Z,20.00
2018-09-28T00:16:15.371Z,20.00
2018-09-28T00:18:43.913Z,20.00
2018-09-28T00:21:12.487Z,20.00
2018-09-28T00:23:41.136Z,20.00
2018-09-28T00:26:09.684Z,20.10
2018-09-28T00:28:38.321Z,20.00
2018-09-28T00:31:07.008Z,20.00
2018-09-28T00:33:35.552Z,20.00
2018-09-28T00:36:04.089Z,20.00
2018-09-28T00:38:32.647Z,20.00
2018-09-28T00:41:01.204Z,20.00
2018-09-28T00:43:29.847Z,20.00
2018-09-28T00:45:58.375Z,20.00
2018-09-28T00:48:26.924Z,20.00
2018-09-28T00:50:55.496Z,20.00
2018-09-28T00:53:24.039Z,20.00
2018-09-28T00:55:52.616Z,20.00
2018-09-28T00:58:21.147Z,20.00
2018-09-28T01:00:49.843Z,20.00
2018-09-28T01:03:18.563Z,20.00
2018-09-28T01:05:47.365Z,20.00
2018-09-28T01:08:16.882Z,19.90
2018-09-28T01:10:45.927Z,19.90
2018-09-28T01:13:14.876Z,19.90
2018-09-28T01:15:43.412Z,19.90
2018-09-28T01:18:12.024Z,19.90
2018-09-28T01:20:40.575Z,19.90
2018-09-28T01:23:09.125Z,19.90
2018-09-28T01:25:37.708Z,19.90
2018-09-28T01:28:06.242Z,19.90
2018-09-28T01:30:34.838Z,19.90
2018-09-28T01:33:03.398Z,19.90
2018-09-28T01:35:32.022Z,19.90
2018-09-28T01:38:01.096Z,19.90
2018-09-28T01:40:29.640Z,19.90
2018-09-28T01:42:58.296Z,19.90
2018-09-28T01:45:26.846Z,19.90
2018-09-28T01:47:55.403Z,19.90
2018-09-28T01:50:23.943Z,19.90
2018-09-28T01:52:52.522Z,19.90
2018-09-28T01:55:21.090Z,19.90
2018-09-28T01:57:49.670Z,19.90
2018-09-28T02:00:18.219Z,19.90
2018-09-28T02:02:46.855Z,19.90
2018-09-28T02:05:15.399Z,19.90
2018-09-28T02:07:43.960Z,19.90
2018-09-28T02:10:12.675Z,19.90
2018-09-28T02:12:41.326Z,19.90
2018-09-28T02:15:09.953Z,19.90
2018-09-28T02:17:38.520Z,19.90
2018-09-28T02:20:07.112Z,19.90
2018-09-28T02:22:35.691Z,19.90
2018-09-28T02:25:04.382Z,19.90
2018-09-28T02:27:33.041Z,19.90
2018-09-28T02:30:01.710Z,19.90
2018-09-28T02:32:30.257Z,19.90
2018-09-28T02:34:58.812Z,19.90
2018-09-28T02:37:27.337Z,19.90
2018-09-28T02:39:55.888Z,19.80
2018-09-28T02:42:24.524Z,19.90
2018-09-28T02:44:53.079Z,19.80
2018-09-28T02:47:21.659Z,19.90
2018-09-28T02:49:50.227Z,19.80
2018-09-28T02:52:18.789Z,19.80
2018-09-28T02:54:47.397Z,19.80
2018-09-28T02:57:15.945Z,19.80
2018-09-28T02:59:44.512Z,19.80
2018-09-28T03:02:13.052Z,19.80
2018-09-28T03:04:41.625Z,19.80
2018-09-28T03:07:10.220Z,19.80
2018-09-28T03:09:38.759Z,19.80
2018-09-28T03:12:07.316Z,19.80
2018-09-28T03:14:35.835Z,19.80
2018-09-28T03:17:04.365Z,19.80
2018-09-28T03:19:33.020Z,19.80
2018-09-28T03:22:01.554Z,19.80
2018-09-28T03:24:30.187Z,19.80
2018-09-28T03:26:59.613Z,19.80
2018-09-28T03:29:28.162Z,19.80
2018-09-28T03:31:56.783Z,19.80
2018-09-28T03:34:25.365Z,19.80
2018-09-28T03:39:22.145Z,19.80
2018-09-28T03:41:50.676Z,19.80
2018-09-28T03:44:19.235Z,19.80
2018-09-28T03:46:47.785Z,19.80
2018-09-28T03:49:16.395Z,19.80
2018-09-28T03:51:44.923Z,19.80
2018-09-28T03:54:13.504Z,19.80
2018-09-28T03:56:42.202Z,19.80
2018-09-28T03:59:10.842Z,19.80
2018-09-28T04:04:07.715Z,19.80
2018-09-28T04:06:36.268Z,19.70
2018-09-28T04:09:07.345Z,19.70
2018-09-28T04:14:04.293Z,19.80
2018-09-28T04:19:01.059Z,19.70
2018-09-28T04:24:12.423Z,19.80
2018-09-28T04:26:41.068Z,19.80
2018-09-28T04:29:09.971Z,19.80
2018-09-28T04:31:38.536Z,19.90
2018-09-28T04:34:07.090Z,20.00
2018-09-28T04:39:04.956Z,20.20
2018-09-28T04:58:58.499Z,21.50
2018-09-28T05:08:58.605Z,21.70
2018-09-28T05:11:27.156Z,21.90
2018-09-28T05:21:20.932Z,22.00
2018-09-28T05:28:46.057Z,21.70
2018-09-28T05:41:07.603Z,21.10
2018-09-28T05:43:36.216Z,21.00
2018-09-28T05:48:33.653Z,20.80
2018-09-28T06:03:34.311Z,20.30
2018-09-28T06:13:29.016Z,20.10
2018-09-28T06:20:54.086Z,20.10
2018-09-28T06:25:51.004Z,20.00
2018-09-28T06:35:45.724Z,19.90
2018-09-28T06:43:10.893Z,20.00
2018-09-28T06:45:39.454Z,19.90
2018-09-28T06:48:08.129Z,20.00
2018-09-28T06:50:36.666Z,20.20
2018-09-28T06:53:05.223Z,20.20
2018-09-28T06:55:33.843Z,20.40
2018-09-28T06:58:02.429Z,20.40
2018-09-28T07:00:31.010Z,20.30
2018-09-28T07:02:59.575Z,20.20
2018-09-28T07:05:28.134Z,20.20
2018-09-28T07:07:56.719Z,20.10
2018-09-28T07:12:53.616Z,20.00
2018-09-28T07:15:22.119Z,20.00
2018-09-28T07:17:50.799Z,20.00
2018-09-28T07:20:19.764Z,20.00
2018-09-28T07:22:49.188Z,19.90
2018-09-28T07:25:17.782Z,19.90
2018-09-28T07:27:46.311Z,19.90
2018-09-28T07:30:14.870Z,19.90
2018-09-28T07:32:43.415Z,19.80
2018-09-28T07:35:11.974Z,19.80
2018-09-28T07:37:40.568Z,19.80
2018-09-28T07:40:09.107Z,19.80
2018-09-28T07:42:37.680Z,19.80
2018-09-28T07:45:06.251Z,19.70
2018-09-28T07:47:34.779Z,19.50
2018-09-28T07:50:03.349Z,19.40
2018-09-28T07:52:31.972Z,19.40
2018-09-28T07:55:00.525Z,19.40
2018-09-28T07:57:29.070Z,19.40
2018-09-28T07:59:58.273Z,19.30
2018-09-28T08:02:26.842Z,19.30
2018-09-28T08:04:55.396Z,19.30
2018-09-28T08:07:23.962Z,19.30
2018-09-28T08:09:52.530Z,19.30
2018-09-28T08:12:21.087Z,19.30
2018-09-28T08:14:49.649Z,19.30
2018-09-28T08:17:18.351Z,19.30
2018-09-28T08:19:46.924Z,19.30
2018-09-28T08:22:15.487Z,19.30
2018-09-28T08:24:44.109Z,19.30
2018-09-28T08:27:13.015Z,19.30
2018-09-28T08:29:41.700Z,19.30
2018-09-28T08:32:10.264Z,19.30
2018-09-28T08:34:38.832Z,19.30
2018-09-28T08:37:07.395Z,19.30
2018-09-28T08:39:36.017Z,19.30
2018-09-28T08:42:04.615Z,19.30
2018-09-28T08:44:33.241Z,19.30
2018-09-28T08:47:01.810Z,19.30
2018-09-28T08:49:30.345Z,19.30
2018-09-28T08:51:59.481Z,19.30
2018-09-28T08:54:28.023Z,19.30
2018-09-28T08:56:56.721Z,19.40
2018-09-28T08:59:25.335Z,19.40
2018-09-28T09:01:53.951Z,19.40
2018-09-28T09:04:22.552Z,19.40
2018-09-28T09:06:51.251Z,19.40
2018-09-28T09:09:19.896Z,19.40
2018-09-28T09:11:48.444Z,19.50
2018-09-28T09:14:17.010Z,19.40
2018-09-28T09:16:45.592Z,19.40
2018-09-28T09:19:14.196Z,19.40
2018-09-28T09:21:42.919Z,19.40
2018-09-28T09:24:11.786Z,19.50
2018-09-28T09:26:40.427Z,19.40
2018-09-28T09:29:08.960Z,19.40
2018-09-28T09:31:37.548Z,19.40
2018-09-28T09:34:06.150Z,19.40
2018-09-28T09:36:34.757Z,19.40
2018-09-28T09:39:03.634Z,19.40
2018-09-28T09:41:32.171Z,19.40
2018-09-28T09:44:01.348Z,19.40
2018-09-28T09:46:29.932Z,19.40
2018-09-28T09:48:58.495Z,19.40
2018-09-28T09:51:27.052Z,19.40
2018-09-28T09:53:55.775Z,19.40
2018-09-28T09:56:24.346Z,19.40
2018-09-28T09:58:52.907Z,19.40
2018-09-28T10:01:26.689Z,19.40
2018-09-28T10:03:57.222Z,19.40
2018-09-28T10:06:25.863Z,19.40
2018-09-28T10:08:54.423Z,19.40
2018-09-28T10:11:22.984Z,19.40
2018-09-28T10:13:51.588Z,19.40
2018-09-28T10:16:20.119Z,19.40
2018-09-28T10:18:48.640Z,19.40
2018-09-28T10:21:17.275Z,19.40
2018-09-28T10:23:45.835Z,19.40
2018-09-28T10:26:14.425Z,19.40
2018-09-28T10:28:43.049Z,19.40
2018-09-28T10:31:11.537Z,19.40
2018-09-28T10:33:40.146Z,19.40
2018-09-28T10:36:08.744Z,19.40
2018-09-28T10:38:37.509Z,19.40
2018-09-28T10:41:06.249Z,19.40
2018-09-28T10:43:34.795Z,19.40
2018-09-28T10:46:03.346Z,19.40
2018-09-28T10:48:31.955Z,19.50
2018-09-28T10:51:00.518Z,19.50
2018-09-28T10:53:29.133Z,19.50
2018-09-28T10:55:57.682Z,19.50
2018-09-28T10:58:26.306Z,19.50
2018-09-28T11:00:54.880Z,19.50
2018-09-28T11:03:23.489Z,19.50
2018-09-28T11:05:52.011Z,19.50
2018-09-28T11:08:20.602Z,19.50
2018-09-28T11:10:49.236Z,19.50
2018-09-28T11:13:17.775Z,19.50
2018-09-28T11:15:46.496Z,19.50
2018-09-28T11:18:15.003Z,19.50
2018-09-28T11:20:43.555Z,19.50
2018-09-28T11:23:12.118Z,19.50
2018-09-28T11:25:40.692Z,19.50
2018-09-28T11:28:09.296Z,19.50
2018-09-28T11:30:37.891Z,19.50
2018-09-28T11:33:06.526Z,19.50
2018-09-28T11:35:35.074Z,19.50
2018-09-28T11:38:03.622Z,19.50
2018-09-28T11:40:32.267Z,19.50
2018-09-28T11:43:00.963Z,19.50
2018-09-28T11:45:29.567Z,19.50
2018-09-28T11:47:58.206Z,19.50
2018-09-28T11:50:26.760Z,19.50
2018-09-28T11:52:55.340Z,19.50
2018-09-28T11:55:23.938Z,19.50
2018-09-28T11:57:52.590Z,19.50
2018-09-28T12:00:21.140Z,19.50
2018-09-28T12:02:49.687Z,19.50
2018-09-28T12:05:18.250Z,19.50
2018-09-28T12:07:46.768Z,19.50
2018-09-28T12:10:15.336Z,19.50
2018-09-28T12:12:43.875Z,19.50
2018-09-28T12:15:12.429Z,19.50
2018-09-28T12:17:41.027Z,19.50
2018-09-28T12:20:10.051Z,19.50
2018-09-28T12:22:38.690Z,19.50
2018-09-28T12:25:07.309Z,19.50
2018-09-28T12:27:35.954Z,19.50
2018-09-28T12:30:04.524Z,19.50
2018-09-28T12:32:33.387Z,19.50
2018-09-28T12:35:01.913Z,19.50
2018-09-28T12:37:30.478Z,19.50
2018-09-28T12:39:59.091Z,19.50
2018-09-28T12:42:27.682Z,19.50
2018-09-28T12:44:56.282Z,19.50
2018-09-28T12:47:24.777Z,19.50
2018-09-28T12:49:53.363Z,19.50
2018-09-28T12:52:21.930Z,19.50
2018-09-28T12:54:50.579Z,19.50
2018-09-28T12:57:19.067Z,19.50
2018-09-28T12:59:47.656Z,19.50
2018-09-28T13:02:16.237Z,19.50
2018-09-28T13:04:44.736Z,19.50
2018-09-28T13:07:13.263Z,19.50
2018-09-28T13:09:41.854Z,19.50
2018-09-28T13:12:10.498Z,19.50
2018-09-28T13:14:39.092Z,19.50
2018-09-28T13:17:07.644Z,19.50
2018-09-28T13:19:36.191Z,19.50
2018-09-28T13:22:04.749Z,19.50
2018-09-28T13:24:33.470Z,19.50
2018-09-28T13:27:02.231Z,19.60
2018-09-28T13:29:30.772Z,19.60
2018-09-28T13:31:59.363Z,19.60
2018-09-28T13:34:28.139Z,19.60
2018-09-28T13:36:56.719Z,19.60
2018-09-28T13:39:25.241Z,19.60
2018-09-28T13:41:53.773Z,19.60
2018-09-28T13:44:22.378Z,19.70
2018-09-28T13:46:50.989Z,19.70
2018-09-28T13:49:19.503Z,19.70
2018-09-28T13:51:48.652Z,19.70
2018-09-28T13:54:17.710Z,19.70
2018-09-28T13:56:46.928Z,19.70
2018-09-28T13:59:15.522Z,19.70
2018-09-28T14:01:44.095Z,19.70
2018-09-28T14:04:12.735Z,19.70
2018-09-28T14:06:41.411Z,19.70
2018-09-28T14:09:10.629Z,19.70
2018-09-28T14:11:39.541Z,19.70
2018-09-28T14:14:08.151Z,19.70
2018-09-28T14:16:37.319Z,19.70
2018-09-28T14:19:05.883Z,19.70
2018-09-28T14:21:34.499Z,19.80
2018-09-28T14:24:03.119Z,19.80
2018-09-28T14:26:31.681Z,19.80
2018-09-28T14:29:00.791Z,19.80
2018-09-28T14:31:29.372Z,19.80
2018-09-28T14:33:58.370Z,19.80
2018-09-28T14:36:27.007Z,19.80
2018-09-28T14:38:55.535Z,19.80
2018-09-28T14:41:24.215Z,19.80
2018-09-28T14:43:52.772Z,19.80
2018-09-28T14:46:21.356Z,19.80
2018-09-28T14:51:18.210Z,19.70
2018-09-28T14:53:46.787Z,19.70
2018-09-28T14:56:15.352Z,19.80
2018-09-28T14:58:43.971Z,19.80
2018-09-28T15:01:12.577Z,19.70
2018-09-28T15:03:41.368Z,19.70
2018-09-28T15:06:09.976Z,19.70
2018-09-28T15:08:39.126Z,19.70
2018-09-28T15:11:07.755Z,19.70
2018-09-28T15:13:36.316Z,19.70
2018-09-28T15:16:04.934Z,19.70
2018-09-28T15:18:34.562Z,19.70
2018-09-28T15:21:03.233Z,19.70
2018-09-28T15:23:31.780Z,19.70
2018-09-28T15:26:00.958Z,19.70
2018-09-28T15:28:29.547Z,19.70
2018-09-28T15:30:58.470Z,19.70
2018-09-28T15:33:27.034Z,19.80
2018-09-28T15:35:55.596Z,19.60
2018-09-28T15:38:54.528Z,19.60
2018-09-28T15:41:23.127Z,19.60
2018-09-28T15:43:51.713Z,19.60
2018-09-28T15:46:20.303Z,19.60
2018-09-28T15:48:48.940Z,19.60
2018-09-28T15:51:17.507Z,19.60
2018-09-28T15:53:46.060Z,19.60
2018-09-28T15:56:14.628Z,19.60
2018-09-28T15:58:43.185Z,19.60
2018-09-28T16:01:11.850Z,19.60
2018-09-28T16:03:40.550Z,19.60
2018-09-28T16:06:09.104Z,19.60
2018-09-28T16:08:37.671Z,19.70
2018-09-28T16:11:06.248Z,19.70
2018-09-28T16:13:34.802Z,20.50
2018-09-28T16:16:03.423Z,20.60
2018-09-28T16:18:32.085Z,20.50
2018-09-28T16:21:00.639Z,20.30
2018-09-28T16:23:29.224Z,20.20
2018-09-28T16:25:58.108Z,20.20
2018-09-28T16:28:26.723Z,20.10
2018-09-28T16:30:55.302Z,20.10
2018-09-28T16:33:26.844Z,20.00
2018-09-28T16:35:55.423Z,20.00
2018-09-28T16:38:23.986Z,20.00
2018-09-28T16:40:52.783Z,20.00
2018-09-28T16:43:21.457Z,20.00
2018-09-28T16:45:50.028Z,20.00
2018-09-28T16:48:19.243Z,20.00
2018-09-28T16:50:48.247Z,20.00
2018-09-28T16:53:16.783Z,20.00
2018-09-28T16:55:45.338Z,20.00
2018-09-28T16:58:14.304Z,20.70
2018-09-28T17:00:42.935Z,20.00
2018-09-28T17:03:11.487Z,20.00
2018-09-28T17:05:40.036Z,20.00
2018-09-28T17:08:08.599Z,20.00
2018-09-28T17:10:37.232Z,20.00
2018-09-28T17:13:05.840Z,20.00
2018-09-28T17:15:34.401Z,20.00
2018-09-28T17:18:02.928Z,20.00
2018-09-28T17:20:31.518Z,20.00
2018-09-28T17:23:00.675Z,19.90
2018-09-28T17:25:29.202Z,19.90
2018-09-28T17:27:57.776Z,19.90
2018-09-28T17:30:26.411Z,19.90
2018-09-28T17:32:54.955Z,19.90
2018-09-28T17:35:23.583Z,19.90
2018-09-28T17:37:52.125Z,19.90
2018-09-28T17:40:20.688Z,19.90
2018-09-28T17:42:50.126Z,19.90
2018-09-28T17:45:18.648Z,19.90
2018-09-28T17:50:15.437Z,19.90
2018-09-28T17:52:44.010Z,19.90
2018-09-28T17:55:12.607Z,19.90
2018-09-28T17:57:41.534Z,19.90
2018-09-28T18:00:10.333Z,19.90
2018-09-28T18:02:38.936Z,19.90
2018-09-28T18:05:07.478Z,19.90
2018-09-28T18:07:36.187Z,19.90
2018-09-28T18:10:04.782Z,19.90
2018-09-28T18:12:35.202Z,19.90
2018-09-28T18:15:04.263Z,19.90
2018-09-28T18:17:33.687Z,19.90
2018-09-28T18:20:03.429Z,19.90
2018-09-28T18:22:32.015Z,19.90
2018-09-28T18:25:00.561Z,19.90
2018-09-28T18:27:29.120Z,19.90
2018-09-28T18:29:57.691Z,19.90
2018-09-28T18:32:26.228Z,19.90
2018-09-28T18:34:54.780Z,19.90
2018-09-28T18:37:23.424Z,19.90
2018-09-28T18:39:52.380Z,19.90
2018-09-28T18:42:21.048Z,19.90
2018-09-28T18:44:49.616Z,19.90
2018-09-28T18:47:18.312Z,19.90
2018-09-28T18:49:47.747Z,19.90
2018-09-28T18:52:16.334Z,19.90
2018-09-28T18:54:44.886Z,19.90
2018-09-28T18:57:13.520Z,19.90
2018-09-28T18:59:42.245Z,19.80
2018-09-28T19:02:10.847Z,19.90
2018-09-28T19:04:39.435Z,19.80
2018-09-28T19:07:08.108Z,19.80
2018-09-28T19:09:36.755Z,19.90
2018-09-28T19:12:05.420Z,20.00
2018-09-28T19:14:34.124Z,20.10
2018-09-28T19:17:03.802Z,20.20
2018-09-28T19:19:32.339Z,20.30
2018-09-28T19:22:00.900Z,20.60
2018-09-28T19:24:29.484Z,20.70
2018-09-28T19:26:58.063Z,20.80
2018-09-28T19:31:54.974Z,21.20
2018-09-28T19:34:24.220Z,21.20
2018-09-28T19:36:52.820Z,21.40
2018-09-28T19:39:21.383Z,21.40
2018-09-28T19:41:49.957Z,21.70
2018-09-28T19:44:18.563Z,21.70
2018-09-28T19:46:47.163Z,21.80
2018-09-28T19:49:15.805Z,21.90
2018-09-28T19:51:44.344Z,21.90
2018-09-28T19:54:12.940Z,22.10
2018-09-28T19:56:41.526Z,22.10
2018-09-28T19:59:10.119Z,22.20
2018-09-28T20:01:38.699Z,22.30
2018-09-28T20:04:07.260Z,22.30
2018-09-28T20:06:36.526Z,22.30
2018-09-28T20:09:07.821Z,22.20
2018-09-28T20:11:36.471Z,22.10
2018-09-28T20:14:05.651Z,22.10
2018-09-28T20:16:34.225Z,22.10
2018-09-28T20:21:31.515Z,21.60
2018-09-28T20:24:00.304Z,21.50
2018-09-28T20:26:28.868Z,21.30
2018-09-28T20:28:57.427Z,21.30
2018-09-28T20:31:25.996Z,21.10
2018-09-28T20:33:54.539Z,21.00
2018-09-28T20:36:23.107Z,20.90
2018-09-28T20:38:51.635Z,20.90
2018-09-28T20:41:20.499Z,20.70
2018-09-28T20:43:49.039Z,20.60
2018-09-28T20:46:17.600Z,20.60
2018-09-28T20:48:46.205Z,20.60
2018-09-28T20:51:17.438Z,20.50
2018-09-28T20:53:46.468Z,20.50
2018-09-28T20:56:15.021Z,20.40
2018-09-28T20:58:44.205Z,20.30
2018-09-28T21:01:12.733Z,20.30
2018-09-28T21:03:41.347Z,20.20
2018-09-28T21:06:09.995Z,20.20
2018-09-28T21:08:38.532Z,20.20
2018-09-28T21:11:07.058Z,20.10
2018-09-28T21:13:35.692Z,20.10
2018-09-28T21:16:04.234Z,20.10
2018-09-28T21:18:32.816Z,20.10
2018-09-28T21:21:02.339Z,20.00
2018-09-28T21:23:30.933Z,20.00
2018-09-28T21:25:59.439Z,20.00
2018-09-28T21:28:27.991Z,20.00
2018-09-28T21:30:57.020Z,19.90
2018-09-28T21:33:25.612Z,20.00
2018-09-28T21:35:54.207Z,19.90
2018-09-28T21:38:22.759Z,19.90
2018-09-28T21:40:51.308Z,19.90
2018-09-28T21:43:19.867Z,19.90
2018-09-28T21:45:48.457Z,19.90
2018-09-28T21:48:17.202Z,19.90
2018-09-28T21:50:45.814Z,19.90
2018-09-28T21:53:14.359Z,19.90
2018-09-28T21:55:42.944Z,19.90
2018-09-28T21:58:11.503Z,19.90
2018-09-28T22:00:40.135Z,19.90
2018-09-28T22:03:09.344Z,19.80
2018-09-28T22:05:37.939Z,19.80
2018-09-28T22:08:06.534Z,19.80
2018-09-28T22:10:35.155Z,19.90
2018-09-28T22:13:03.730Z,20.00
2018-09-28T22:15:32.263Z,20.00
2018-09-28T22:18:00.883Z,20.10
2018-09-28T22:20:29.426Z,20.30
2018-09-28T22:22:58.011Z,20.60
2018-09-28T22:25:26.584Z,20.80
2018-09-28T22:27:55.158Z,20.80
2018-09-28T22:30:23.708Z,21.30
2018-09-28T22:32:52.266Z,21.40
2018-09-28T22:35:20.946Z,21.40
2018-09-28T22:37:49.551Z,21.40
2018-09-28T22:40:18.459Z,21.70
2018-09-28T22:42:47.679Z,21.70
2018-09-28T22:45:16.955Z,21.70
2018-09-28T22:47:45.491Z,21.90
2018-09-28T22:50:14.135Z,22.00
2018-09-28T22:52:42.655Z,22.10
2018-09-28T22:55:11.235Z,22.10
2018-09-28T22:57:39.867Z,22.20
2018-09-28T23:00:08.426Z,22.20
2018-09-28T23:02:36.979Z,22.20
2018-09-28T23:05:05.515Z,22.20
2018-09-28T23:07:34.060Z,22.30
2018-09-28T23:10:03.207Z,22.10
2018-09-28T23:12:31.720Z,22.20
2018-09-28T23:15:00.349Z,22.20
2018-09-28T23:17:28.906Z,22.30
2018-09-28T23:19:57.490Z,22.20
2018-09-28T23:22:26.115Z,22.30
2018-09-28T23:24:55.188Z,22.20
2018-09-28T23:27:23.722Z,22.10
2018-09-28T23:29:52.296Z,22.20
2018-09-28T23:32:20.840Z,22.20
2018-09-28T23:34:49.392Z,22.10
2018-09-28T23:37:18.008Z,22.10
2018-09-28T23:39:46.536Z,22.10
2018-09-28T23:42:15.089Z,22.10
2018-09-28T23:44:43.626Z,22.20
2018-09-28T23:47:12.161Z,22.10
2018-09-28T23:49:40.752Z,22.00
2018-09-28T23:52:09.314Z,21.80
2018-09-28T23:54:41.799Z,21.70
2018-09-28T23:57:10.399Z,21.60
2018-09-28T23:59:38.936Z,21.40
